OGG weather

Kahului Airport
Kahului, Hawaii, United States

Public forecast

Using degrees Fahrenheit for public forecast. Weather courtesy of forecast.io.

Current aviation weather report (METAR) for Kahului Airport

Retrieved 2019/10/21 02:54 UTC (44 minutes ago):

PHOG 210254Z COR VRB04KT 10SM FEW020 SCT045 31/21 A2992 RMK AO2 SLP135 T03110206 53001

Aviation forecast (TAF) for Kahului Airport

Retrieved 2019-10-21 00:22 UTC (3 hours ago):

TAF PHOG 202320Z 2100/2124 05011G18KT P6SM FEW040 SCT050 FM210600 06010KT P6SM FEW030 SCT050 FM212000 06016G24KT P6SM FEW030 SCT050